Time;durP1;ratioP1;P1;durP2;ratioP2;P2;SDS_P1;SDS_P2;PMS_P1;PMS_P2;Temp;Humidity;BMP_temperature;BMP_pressure;BME280_temperature;BME280_humidity;BME280_pressure;Samples;Min_cycle;Max_cycle;Signal;HPM_P1;HPM_P2
2021/04/03 00:00:55;;;;;;;67.93;31.93;;;;;;;1.11;72.63;98853.77;117180;1209;22875;-63
2021/04/03 00:03:24;;;;;;;59.23;25.37;;;;;;;1.11;72.66;98852.94;117124;1208;22944;-62
2021/04/03 00:05:52;;;;;;;49.05;24.95;;;;;;;1.10;73.00;98848.61;117235;1212;22875;-63
2021/04/03 00:08:24;;;;;;;46.17;22.63;;;;;;;1.08;72.61;98850.67;117060;1209;22999;-63
2021/04/03 00:11:10;;;;;;;49.93;22.30;;;;;;;1.06;72.55;98850.88;117182;1215;22914;-63
2021/04/03 00:13:40;;;;;;;49.90;22.37;;;;;;;1.04;72.90;98848.41;117075;1208;22964;-63
2021/04/03 00:16:11;;;;;;;52.60;22.60;;;;;;;1.05;73.00;98850.06;117238;1212;23100;-63
2021/04/03 00:18:38;;;;;;;48.53;22.07;;;;;;;1.05;72.94;98851.92;117141;1208;22930;-63
2021/04/03 00:21:07;;;;;;;45.20;21.55;;;;;;;1.02;72.80;98850.48;117206;1209;22869;-63
2021/04/03 00:23:34;;;;;;;43.60;20.30;;;;;;;0.99;72.95;98842.88;117086;1209;23586;-63
2021/04/03 00:26:03;;;;;;;46.20;20.70;;;;;;;1.01;72.59;98848.04;117243;1209;23063;-63
2021/04/03 00:28:33;;;;;;;44.03;20.57;;;;;;;1.00;72.39;98851.75;117122;1212;22856;-63
2021/04/03 00:31:00;;;;;;;45.35;20.25;;;;;;;0.97;72.99;98853.00;117238;1212;22952;-63
2021/04/03 00:33:28;;;;;;;48.60;21.50;;;;;;;0.99;72.65;98855.47;117154;1209;22985;-63
2021/04/03 00:35:56;;;;;;;44.67;21.90;;;;;;;0.99;73.26;98853.61;117233;1209;23010;-63
2021/04/03 00:38:24;;;;;;;40.20;19.90;;;;;;;1.00;73.08;98844.53;117154;1209;23807;-63
2021/04/03 00:40:51;;;;;;;45.35;22.25;;;;;;;1.01;73.34;98846.15;117179;1212;22897;-63
2021/04/03 00:43:23;;;;;;;53.85;21.70;;;;;;;1.02;72.98;98845.11;117126;1209;22844;-63
2021/04/03 00:45:51;;;;;;;47.25;20.60;;;;;;;1.05;73.67;98854.60;116229;1209;23122;-61
2021/04/03 00:48:19;;;;;;;41.07;18.97;;;;;;;1.04;73.47;98853.77;113384;1212;26060;-60
2021/04/03 00:50:49;;;;;;;43.85;18.35;;;;;;;1.05;73.81;98850.06;117203;1209;23062;-59
2021/04/03 00:53:27;;;;;;;40.05;16.60;;;;;;;1.08;74.04;98853.36;117154;1209;22862;-59
2021/04/03 00:56:05;;;;;;;40.63;19.03;;;;;;;1.11;74.04;98847.57;117229;1209;22941;-59
2021/04/03 00:58:33;;;;;;;36.70;17.80;;;;;;;1.12;73.04;98852.73;117167;1212;22787;-59
2021/04/03 01:01:03;;;;;;;42.75;20.65;;;;;;;1.14;73.15;98853.34;117041;1209;22920;-59
2021/04/03 01:03:32;;;;;;;42.10;20.60;;;;;;;1.15;73.62;98848.80;117181;1209;22856;-59
2021/04/03 01:06:01;;;;;;;45.70;21.77;;;;;;;1.17;73.40;98858.25;117154;1209;23308;-59
2021/04/03 01:08:31;;;;;;;42.13;19.87;;;;;;;1.18;73.43;98848.34;117249;1209;22842;-59
2021/04/03 01:10:59;;;;;;;46.93;21.07;;;;;;;1.18;73.49;98846.48;117140;1208;22831;-59
2021/04/03 01:13:49;;;;;;;44.00;20.75;;;;;;;1.18;72.79;98857.22;117230;1209;22888;-59
2021/04/03 01:16:38;;;;;;;41.05;20.80;;;;;;;1.16;73.04;98851.23;117098;1209;26720;-59
2021/04/03 01:19:25;;;;;;;44.40;21.00;;;;;;;1.15;72.70;98849.63;117219;1209;23518;-60
2021/04/03 01:22:15;;;;;;;36.58;19.40;;;;;;;1.11;73.31;98855.62;117231;1208;22895;-59
2021/04/03 01:25:01;;;;;;;41.80;20.40;;;;;;;1.07;72.64;98852.53;117113;1209;22812;-59
2021/04/03 01:27:30;;;;;;;43.15;19.38;;;;;;;1.05;72.85;98855.42;117183;1209;22856;-59
2021/04/03 01:30:09;;;;;;;41.50;18.45;;;;;;;1.05;73.66;98851.92;117118;1209;23039;-59
2021/04/03 01:32:49;;;;;;;47.40;20.70;;;;;;;1.01;72.86;98853.41;117229;1212;23786;-59
2021/04/03 01:35:23;;;;;;;44.85;19.55;;;;;;;0.97;72.56;98861.05;117091;1209;22970;-59
2021/04/03 01:37:59;;;;;;;39.37;19.77;;;;;;;0.95;73.30;98851.56;117152;1212;22833;-59
2021/04/03 01:40:27;;;;;;;40.50;20.65;;;;;;;0.93;73.40;98856.31;117073;1212;22899;-60
2021/04/03 01:43:05;;;;;;;37.75;18.55;;;;;;;0.89;73.31;98852.39;117161;1209;22924;-59
2021/04/03 01:45:32;;;;;;;38.85;18.30;;;;;;;0.85;72.91;98852.02;116810;1212;22927;-59
2021/04/03 01:48:00;;;;;;;33.45;17.15;;;;;;;0.81;73.22;98853.47;116950;1212;23289;-59
2021/04/03 01:50:28;;;;;;;33.30;17.40;;;;;;;0.77;73.46;98851.41;116782;1215;22864;-59
2021/04/03 01:52:56;;;;;;;39.45;19.40;;;;;;;0.75;73.04;98854.30;116716;1212;22984;-59
2021/04/03 01:55:24;;;;;;;36.00;17.50;;;;;;;0.70;73.48;98856.81;116493;1216;23622;-63
2021/04/03 01:57:52;;;;;;;35.55;17.40;;;;;;;0.68;73.20;98853.52;116678;1213;23782;-62
2021/04/03 02:00:25;;;;;;;37.20;17.50;;;;;;;0.67;72.93;98846.50;116785;1215;22841;-62
2021/04/03 02:02:57;;;;;;;32.03;16.67;;;;;;;0.65;73.27;98844.03;116720;1212;23228;-63
2021/04/03 02:05:26;;;;;;;39.40;15.93;;;;;;;0.67;73.18;98850.01;116782;1212;22967;-62
2021/04/03 02:08:04;;;;;;;35.78;17.25;;;;;;;0.65;72.73;98846.71;116714;1217;22945;-62
2021/04/03 02:10:32;;;;;;;39.70;16.70;;;;;;;0.66;73.52;98836.81;116843;1212;23026;-62
2021/04/03 02:13:04;;;;;;;38.17;17.57;;;;;;;0.66;72.82;98837.64;116755;1212;23040;-62
2021/04/03 02:15:36;;;;;;;33.70;16.13;;;;;;;0.65;72.38;98832.48;116830;1212;22844;-62
2021/04/03 02:18:05;;;;;;;39.60;17.53;;;;;;;0.61;73.09;98833.93;116867;1211;23006;-62
2021/04/03 02:20:38;;;;;;;33.80;15.65;;;;;;;0.60;73.49;98827.74;116896;1211;23536;-63
2021/04/03 02:23:06;;;;;;;31.75;14.90;;;;;;;0.62;72.97;98832.90;117101;1209;23013;-62
2021/04/03 02:25:34;;;;;;;36.57;14.93;;;;;;;0.63;73.54;98827.33;117191;1209;23617;-62
2021/04/03 02:28:03;;;;;;;32.05;14.35;;;;;;;0.65;73.02;98824.44;117037;1212;23059;-63
2021/04/03 02:30:40;;;;;;;33.40;15.60;;;;;;;0.67;72.71;98836.61;116942;1212;24154;-63
2021/04/03 02:33:07;;;;;;;32.00;15.33;;;;;;;0.67;73.44;98833.92;117111;1209;22868;-63
2021/04/03 02:35:36;;;;;;;28.13;14.20;;;;;;;0.72;72.91;98838.66;117179;1209;22791;-59
2021/04/03 02:38:05;;;;;;;34.85;16.60;;;;;;;0.73;72.87;98834.91;117135;1209;22901;-59
2021/04/03 02:40:37;;;;;;;29.77;14.70;;;;;;;0.76;73.56;98829.14;117202;1208;22847;-59
2021/04/03 02:43:23;;;;;;;34.80;16.50;;;;;;;0.75;73.06;98832.03;117120;1209;22921;-59
2021/04/03 02:45:59;;;;;;;28.45;13.30;;;;;;;0.74;73.37;98827.70;117203;1212;23782;-59
2021/04/03 02:48:29;;;;;;;34.20;14.45;;;;;;;0.73;73.20;98826.88;117104;1209;22856;-60
2021/04/03 02:50:59;;;;;;;35.50;17.23;;;;;;;0.71;73.21;98828.97;117174;1209;22903;-59
2021/04/03 02:53:30;;;;;;;36.10;15.77;;;;;;;0.71;72.78;98826.29;117117;1209;23765;-59
2021/04/03 02:56:02;;;;;;;32.40;17.25;;;;;;;0.68;72.98;98827.53;117175;1212;23006;-59
2021/04/03 02:58:36;;;;;;;37.80;17.60;;;;;;;0.67;72.82;98830.42;117100;1212;22822;-59
2021/04/03 03:01:04;;;;;;;34.47;17.10;;;;;;;0.62;72.31;98831.04;117186;1208;22923;-59
2021/04/03 03:03:33;;;;;;;35.90;17.80;;;;;;;0.58;73.35;98837.02;117073;1208;22874;-59
2021/04/03 03:06:02;;;;;;;34.13;17.57;;;;;;;0.54;73.15;98831.28;117212;1208;22984;-63
2021/04/03 03:08:29;;;;;;;42.15;18.45;;;;;;;0.53;72.64;98836.86;117159;1212;23725;-63
2021/04/03 03:10:59;;;;;;;40.93;21.37;;;;;;;0.51;73.00;98836.23;117189;1209;22807;-63
2021/04/03 03:13:27;;;;;;;44.77;20.30;;;;;;;0.51;74.19;98833.55;117122;1209;24927;-62
2021/04/03 03:16:01;;;;;;;46.00;22.70;;;;;;;0.53;74.02;98837.67;117120;1209;23024;-63
2021/04/03 03:18:30;;;;;;;48.55;24.25;;;;;;;0.57;74.01;98843.45;117239;1209;22922;-63
2021/04/03 03:20:58;;;;;;;49.65;25.55;;;;;;;0.56;73.83;98834.59;117072;1209;22830;-62
2021/04/03 03:23:25;;;;;;;51.80;23.80;;;;;;;0.57;73.66;98827.37;117167;1209;22880;-62
2021/04/03 03:25:57;;;;;;;48.63;23.23;;;;;;;0.58;73.88;98834.34;117125;1212;22902;-63
2021/04/03 03:28:26;;;;;;;48.30;24.13;;;;;;;0.59;74.11;98833.31;117188;1209;22913;-62
2021/04/03 03:30:54;;;;;;;46.43;23.53;;;;;;;0.55;73.33;98832.11;117125;1208;22884;-62
2021/04/03 03:33:24;;;;;;;51.40;24.90;;;;;;;0.52;73.78;98832.52;117187;1209;22868;-62
2021/04/03 03:35:57;;;;;;;45.73;24.23;;;;;;;0.50;74.07;98832.73;117080;1212;23763;-62
2021/04/03 03:38:24;;;;;;;47.07;22.23;;;;;;;0.49;73.67;98824.90;117147;1215;22826;-62
2021/04/03 03:40:54;;;;;;;46.35;22.20;;;;;;;0.47;73.45;98830.47;114297;1213;23129;-62
2021/04/03 03:43:24;;;;;;;44.93;20.93;;;;;;;0.47;73.44;98835.83;117193;1209;22804;-63
2021/04/03 03:49:03;;;;;;;42.07;19.40;;;;;;;0.40;73.43;98823.48;113317;1205;23213;-63
2021/04/03 03:51:33;;;;;;;42.10;20.75;;;;;;;0.38;74.19;98814.83;117099;1209;22996;-63
2021/04/03 03:54:07;;;;;;;39.87;21.23;;;;;;;0.40;74.25;98818.13;117238;1209;22807;-64
2021/04/03 03:56:35;;;;;;;41.77;21.07;;;;;;;0.41;73.85;98819.78;117109;1209;22851;-63
2021/04/03 03:59:03;;;;;;;40.00;20.13;;;;;;;0.44;74.69;98822.02;117210;1209;23032;-63
2021/04/03 04:01:32;;;;;;;41.43;20.47;;;;;;;0.49;75.03;98820.36;117104;1208;22866;-63
2021/04/03 04:04:00;;;;;;;36.83;17.53;;;;;;;0.57;74.78;98819.33;117186;1209;22868;-64
2021/04/03 04:06:28;;;;;;;37.30;18.80;;;;;;;0.69;75.45;98828.36;117100;1209;22828;-63
2021/04/03 04:08:56;;;;;;;32.93;17.43;;;;;;;0.86;74.89;98824.17;117178;1213;22835;-64
2021/04/03 04:11:24;;;;;;;36.90;18.55;;;;;;;1.08;74.94;98823.84;117094;1209;22947;-63
2021/04/03 04:13:57;;;;;;;38.25;18.95;;;;;;;1.32;74.39;98823.09;117188;1212;22904;-64
2021/04/03 04:16:37;;;;;;;37.17;17.83;;;;;;;1.58;74.37;98822.12;114619;1212;24558;-63
2021/04/03 04:19:06;;;;;;;43.10;21.50;;;;;;;1.79;73.89;98829.80;117168;1215;22952;-64
2021/04/03 04:21:35;;;;;;;39.30;19.85;;;;;;;1.97;73.14;98831.72;116957;1210;22880;-64
2021/04/03 04:24:03;;;;;;;50.30;20.50;;;;;;;2.07;73.51;98826.67;117685;1205;22915;-63
2021/04/03 04:26:31;;;;;;;41.50;19.57;;;;;;;2.15;72.87;98823.72;117649;1206;22946;-63
2021/04/03 04:28:58;;;;;;;44.75;21.65;;;;;;;2.17;72.33;98837.73;117672;1205;23445;-64
2021/04/03 04:31:29;;;;;;;42.20;19.95;;;;;;;2.19;72.36;98834.83;117666;1206;23142;-63
2021/04/03 04:34:18;;;;;;;43.77;20.20;;;;;;;2.21;72.25;98832.74;117720;1205;22867;-63
2021/04/03 04:36:48;;;;;;;37.67;20.90;;;;;;;2.22;72.04;98827.15;117693;1209;22988;-63
2021/04/03 04:39:20;;;;;;;38.60;21.00;;;;;;;2.24;72.19;98829.62;117613;1206;23746;-63
2021/04/03 04:41:49;;;;;;;43.57;19.73;;;;;;;2.26;72.03;98827.54;117678;1206;22913;-64
2021/04/03 04:44:18;;;;;;;41.20;19.10;;;;;;;2.30;72.28;98826.88;117608;1206;22952;-63
2021/04/03 04:46:46;;;;;;;34.90;17.03;;;;;;;2.33;71.86;98823.73;117846;1205;22868;-63
2021/04/03 04:49:14;;;;;;;43.40;18.50;;;;;;;2.37;71.80;98827.63;117811;1208;22825;-63
2021/04/03 04:51:44;;;;;;;34.15;15.85;;;;;;;2.39;71.39;98827.41;117831;1205;22853;-64
2021/04/03 04:54:19;;;;;;;33.50;14.70;;;;;;;2.40;71.90;98829.05;117700;1205;22931;-64
2021/04/03 04:56:49;;;;;;;34.05;15.80;;;;;;;2.41;71.13;98831.52;117844;1205;22869;-64
2021/04/03 04:59:22;;;;;;;28.03;12.90;;;;;;;2.44;71.14;98836.46;117850;1208;22854;-64
2021/04/03 05:02:02;;;;;;;28.33;12.53;;;;;;;2.45;71.35;98832.70;117863;1204;22901;-64
2021/04/03 05:04:30;;;;;;;22.45;12.75;;;;;;;2.47;71.24;98837.86;117876;1206;22932;-64
2021/04/03 05:06:57;;;;;;;27.33;13.50;;;;;;;2.48;71.37;98834.95;117863;1205;22925;-64
2021/04/03 05:09:25;;;;;;;23.57;13.47;;;;;;;2.53;70.96;98836.16;117798;1205;22890;-64
2021/04/03 05:11:52;;;;;;;26.33;13.33;;;;;;;2.56;71.11;98841.91;117953;1204;23643;-64
2021/04/03 05:14:20;;;;;;;21.83;12.40;;;;;;;2.57;71.17;98840.05;117839;1205;22884;-64
2021/04/03 05:16:47;;;;;;;20.15;10.85;;;;;;;2.58;70.87;98836.31;117916;1208;22919;-64
2021/04/03 05:19:15;;;;;;;17.87;10.40;;;;;;;2.59;70.62;98841.48;117753;1205;25182;-64
2021/04/03 05:21:42;;;;;;;20.40;10.30;;;;;;;2.60;70.80;98837.72;117960;1206;22948;-64
2021/04/03 05:24:10;;;;;;;21.60;10.70;;;;;;;2.62;71.03;98838.31;117743;1205;22961;-63
2021/04/03 05:26:37;;;;;;;22.67;10.67;;;;;;;2.63;70.74;98826.52;118013;1207;22896;-64
2021/04/03 05:29:05;;;;;;;23.73;10.60;;;;;;;2.67;70.95;98832.27;117851;1209;22816;-63
2021/04/03 05:31:35;;;;;;;17.40;9.80;;;;;;;2.67;70.97;98833.09;117904;1205;22988;-64
2021/04/03 05:34:02;;;;;;;21.05;9.00;;;;;;;2.70;71.34;98831.84;117870;1205;22816;-64
2021/04/03 05:36:31;;;;;;;17.40;8.70;;;;;;;2.77;70.64;98827.19;117836;1206;23015;-63
2021/04/03 05:38:58;;;;;;;14.55;7.55;;;;;;;2.84;69.74;98830.63;117799;1207;23575;-64
2021/04/03 05:41:26;;;;;;;18.50;8.80;;;;;;;2.86;70.26;98835.80;117735;1205;23048;-64
2021/04/03 05:43:53;;;;;;;17.43;8.43;;;;;;;2.91;69.62;98838.61;117869;1208;22817;-64
2021/04/03 05:46:24;;;;;;;21.60;9.10;;;;;;;2.93;69.40;98836.52;117762;1205;22906;-64
2021/04/03 05:48:51;;;;;;;24.63;9.30;;;;;;;2.95;69.45;98842.50;118111;1206;23679;-63
2021/04/03 05:51:19;;;;;;;20.90;9.37;;;;;;;2.99;69.34;98841.02;117813;1206;22880;-62
2021/04/03 05:53:47;;;;;;;22.00;10.75;;;;;;;3.09;69.39;98850.19;117974;1205;22836;-62
2021/04/03 05:56:15;;;;;;;19.10;9.50;;;;;;;3.15;68.51;98851.16;117907;1205;22893;-63
2021/04/03 05:58:44;;;;;;;21.20;10.30;;;;;;;3.23;69.22;98852.70;117841;1206;22990;-62
2021/04/03 06:01:12;;;;;;;31.40;11.30;;;;;;;3.30;68.60;98848.90;117784;1205;22921;-62
2021/04/03 06:03:40;;;;;;;22.40;11.05;;;;;;;3.36;67.95;98858.73;117962;1208;23697;-62
2021/04/03 06:06:08;;;;;;;26.85;11.35;;;;;;;3.42;68.24;98851.63;117734;1205;22990;-62
2021/04/03 06:08:36;;;;;;;25.03;10.83;;;;;;;3.47;67.53;98857.95;117935;1206;22844;-63
2021/04/03 06:11:13;;;;;;;25.00;12.25;;;;;;;3.54;67.76;98861.39;117790;1206;23053;-62
2021/04/03 06:13:44;;;;;;;28.40;12.53;;;;;;;3.61;67.85;98858.59;117898;1205;22815;-63
2021/04/03 06:16:37;;;;;;;23.93;12.27;;;;;;;3.68;67.28;98853.94;117702;1206;22854;-63
2021/04/03 06:19:14;;;;;;;144.20;60.30;;;;;;;3.74;66.32;98860.30;117883;1205;23612;-63
2021/04/03 06:21:46;;;;;;;30.10;14.90;;;;;;;3.79;66.21;98858.53;117860;1205;22814;-62
2021/04/03 06:24:25;;;;;;;74.90;27.20;;;;;;;3.82;65.52;98847.30;117830;1205;23586;-63
2021/04/03 06:26:54;;;;;;;42.75;19.65;;;;;;;3.91;65.34;98855.86;117779;1208;22872;-62
2021/04/03 06:29:37;;;;;;;15.90;8.90;;;;;;;3.97;65.74;98854.95;117810;1205;22851;-63
2021/04/03 06:32:07;;;;;;;9.60;6.00;;;;;;;4.07;66.01;98860.58;117855;1205;23016;-63
2021/04/03 06:34:37;;;;;;;11.55;5.90;;;;;;;4.21;65.81;98866.58;117991;1205;22807;-62
2021/04/03 06:37:07;;;;;;;14.97;6.00;;;;;;;4.34;65.71;98866.34;117809;1205;22960;-63
2021/04/03 06:39:57;;;;;;;12.95;6.75;;;;;;;4.47;64.96;98873.42;117804;1206;22929;-63
2021/04/03 06:42:37;;;;;;;14.50;6.50;;;;;;;4.60;65.11;98883.97;117861;1206;22847;-63
2021/04/03 06:45:26;;;;;;;10.35;6.70;;;;;;;4.69;64.23;98885.25;117920;1209;23047;-63
2021/04/03 06:47:58;;;;;;;12.20;7.00;;;;;;;4.77;63.61;98882.17;117862;1204;23019;-63
2021/04/03 06:50:27;;;;;;;17.37;8.17;;;;;;;4.86;62.78;98886.17;117889;1205;24127;-63
2021/04/03 06:52:55;;;;;;;13.05;7.20;;;;;;;4.91;62.77;98882.75;117752;1205;22903;-63
2021/04/03 06:55:23;;;;;;;17.60;7.53;;;;;;;4.96;62.47;98890.96;117838;1204;23458;-63
2021/04/03 06:57:52;;;;;;;53.15;15.55;;;;;;;5.02;62.29;98883.80;117879;1204;23347;-63
2021/04/03 07:00:20;;;;;;;23.43;10.17;;;;;;;5.12;63.23;98890.23;117801;1205;22929;-62
2021/04/03 07:02:56;;;;;;;17.17;9.37;;;;;;;5.22;63.76;98897.72;117730;1205;23521;-65
2021/04/03 07:05:25;;;;;;;24.05;13.15;;;;;;;5.31;64.41;98899.83;117887;1206;23996;-60
2021/04/03 07:07:54;;;;;;;26.40;13.10;;;;;;;5.43;65.27;98899.78;117782;1206;22948;-59
2021/04/03 07:10:22;;;;;;;20.77;10.50;;;;;;;5.56;64.16;98907.61;117980;1205;22885;-60
2021/04/03 07:12:49;;;;;;;18.67;9.83;;;;;;;5.67;64.14;98908.62;117828;1206;23530;-60
2021/04/03 07:15:17;;;;;;;15.00;10.15;;;;;;;5.78;62.71;98909.63;117731;1205;22857;-60
2021/04/03 07:17:45;;;;;;;19.75;8.60;;;;;;;5.83;62.37;98907.84;117699;1205;22909;-60
2021/04/03 07:20:14;;;;;;;18.65;7.95;;;;;;;5.90;61.99;98913.15;117897;1205;24093;-60
2021/04/03 07:22:49;;;;;;;14.25;8.50;;;;;;;5.96;61.29;98909.45;117958;1208;23989;-60
2021/04/03 07:25:18;;;;;;;14.45;7.60;;;;;;;6.07;61.96;98915.86;117755;1206;22867;-59
2021/04/03 07:27:46;;;;;;;14.70;7.93;;;;;;;6.20;61.47;98929.09;117882;1208;22919;-59
2021/04/03 07:30:34;;;;;;;11.70;7.25;;;;;;;6.25;58.99;98924.58;117853;1206;22800;-59
2021/04/03 07:33:10;;;;;;;13.75;6.60;;;;;;;6.28;59.92;98923.27;117912;1208;22821;-60
2021/04/03 07:35:45;;;;;;;9.20;5.20;;;;;;;6.34;59.35;98935.84;117159;1207;23220;-60
2021/04/03 07:38:24;;;;;;;9.03;4.60;;;;;;;6.42;59.22;98921.89;117884;1205;22877;-60
2021/04/03 07:40:59;;;;;;;12.77;6.70;;;;;;;6.51;58.08;98931.23;117820;1208;22809;-60
2021/04/03 07:43:40;;;;;;;10.30;5.10;;;;;;;6.55;57.37;98931.56;117974;1208;22844;-60
2021/04/03 07:46:35;;;;;;;11.45;5.75;;;;;;;6.58;56.98;98921.07;117844;1205;22859;-60
2021/04/03 07:49:03;;;;;;;10.90;5.90;;;;;;;6.63;56.57;98933.88;117975;1206;23416;-60
2021/04/03 07:51:31;;;;;;;11.05;4.45;;;;;;;6.62;53.65;98941.17;117770;1205;22924;-60
2021/04/03 07:53:59;;;;;;;14.00;4.65;;;;;;;6.61;53.17;98936.82;117853;1205;22888;-60
2021/04/03 07:56:51;;;;;;;8.40;3.75;;;;;;;6.58;54.86;98937.31;117860;1205;23524;-60
2021/04/03 07:59:43;;;;;;;6.50;3.60;;;;;;;6.64;53.90;98947.13;117923;1206;23465;-60
2021/04/03 08:02:13;;;;;;;7.35;3.15;;;;;;;6.72;53.24;98938.62;117834;1205;23698;-60
2021/04/03 08:04:40;;;;;;;8.80;4.07;;;;;;;6.76;51.78;98951.66;117879;1207;23012;-60
2021/04/03 08:07:08;;;;;;;8.40;3.50;;;;;;;6.78;50.93;98954.95;117802;1206;23061;-60
2021/04/03 08:09:36;;;;;;;5.75;3.30;;;;;;;6.80;50.95;98960.91;117863;1205;23011;-60
2021/04/03 08:12:05;;;;;;;7.43;3.67;;;;;;;6.88;51.00;98960.52;117812;1205;22885;-60
2021/04/03 08:14:33;;;;;;;8.95;4.20;;;;;;;6.95;51.38;98953.02;117807;1206;23891;-60
2021/04/03 08:17:01;;;;;;;9.10;4.80;;;;;;;7.01;50.48;98947.44;117768;1208;22817;-60
2021/04/03 08:19:31;;;;;;;11.90;5.20;;;;;;;7.06;50.41;98947.53;117890;1204;23242;-60
2021/04/03 08:21:59;;;;;;;9.00;4.40;;;;;;;7.10;50.61;98950.53;117806;1206;23762;-60
2021/04/03 08:24:27;;;;;;;7.25;3.85;;;;;;;7.15;51.33;98945.20;117854;1205;23004;-60
2021/04/03 08:26:54;;;;;;;10.23;4.50;;;;;;;7.19;50.91;98938.22;117735;1206;22987;-59
2021/04/03 08:29:30;;;;;;;7.20;4.00;;;;;;;7.26;49.69;98938.02;117986;1209;22908;-60
2021/04/03 08:31:58;;;;;;;7.45;4.15;;;;;;;7.31;51.23;98941.63;117808;1205;22883;-60
2021/04/03 08:34:26;;;;;;;9.60;3.80;;;;;;;7.39;50.98;98943.06;117898;1205;22928;-60
2021/04/03 08:36:53;;;;;;;6.15;4.25;;;;;;;7.47;50.14;98948.07;117815;1209;22836;-63
2021/04/03 08:39:22;;;;;;;6.05;3.10;;;;;;;7.52;50.12;98936.45;117704;1205;22920;-63
2021/04/03 08:41:54;;;;;;;10.85;5.00;;;;;;;7.57;49.61;98944.66;117808;1204;22984;-63
2021/04/03 08:44:22;;;;;;;8.75;4.15;;;;;;;7.61;49.61;98949.33;118104;1206;22863;-63
2021/04/03 08:47:03;;;;;;;6.80;3.15;;;;;;;7.66;48.94;98938.52;117775;1204;23101;-64
2021/04/03 08:49:37;;;;;;;8.95;4.90;;;;;;;7.70;48.04;98928.00;117989;1204;22930;-64
2021/04/03 08:52:06;;;;;;;6.05;3.40;;;;;;;7.69;48.33;98926.36;117836;1206;23710;-63
2021/04/03 08:54:42;;;;;;;5.40;2.80;;;;;;;7.70;49.84;98925.29;117994;1204;23048;-63
2021/04/03 08:57:23;;;;;;;7.25;3.50;;;;;;;7.73;48.14;98928.32;117752;1205;22848;-63
2021/04/03 08:59:51;;;;;;;7.20;3.20;;;;;;;7.77;48.79;98934.06;117863;1205;22826;-63
2021/04/03 09:02:18;;;;;;;7.20;3.60;;;;;;;7.80;48.73;98926.21;117841;1206;23018;-63
2021/04/03 09:04:46;;;;;;;8.65;4.55;;;;;;;7.85;48.20;98932.77;117858;1208;23101;-63
2021/04/03 09:07:13;;;;;;;5.35;3.25;;;;;;;7.89;46.23;98926.59;117970;1208;22979;-63
2021/04/03 09:09:40;;;;;;;5.95;2.55;;;;;;;7.87;47.46;98928.73;117679;1204;22876;-63
2021/04/03 09:12:10;;;;;;;3.53;2.20;;;;;;;7.92;47.47;98931.52;117877;1204;23789;-63
2021/04/03 09:14:52;;;;;;;3.25;1.85;;;;;;;7.96;44.47;98929.09;117990;1208;22897;-64
2021/04/03 09:17:20;;;;;;;4.65;2.80;;;;;;;7.97;46.05;98914.45;117888;1208;22919;-60
2021/04/03 09:19:48;;;;;;;4.00;1.95;;;;;;;8.00;45.36;98920.20;117777;1204;22814;-60
2021/04/03 09:22:17;;;;;;;6.17;2.47;;;;;;;8.06;45.92;98924.61;117839;1205;22830;-60
2021/04/03 09:24:58;;;;;;;5.20;1.95;;;;;;;8.10;44.49;98933.85;117827;1208;22838;-60
2021/04/03 09:27:26;;;;;;;4.80;1.90;;;;;;;8.14;44.26;98939.59;117961;1205;23719;-60
2021/04/03 09:30:07;;;;;;;4.15;2.30;;;;;;;8.19;45.06;98936.13;117977;1205;22863;-60
2021/04/03 09:32:45;;;;;;;4.80;1.90;;;;;;;8.26;45.59;98934.82;117840;1205;23631;-60
2021/04/03 09:35:33;;;;;;;7.65;3.10;;;;;;;8.32;42.97;98927.59;117765;1205;22833;-60
2021/04/03 09:38:01;;;;;;;2.95;1.88;;;;;;;8.31;42.81;98929.45;117868;1208;22826;-60
2021/04/03 09:40:37;;;;;;;3.95;1.80;;;;;;;8.29;42.28;98923.45;117767;1206;23904;-60
2021/04/03 09:43:06;;;;;;;1.45;1.00;;;;;;;8.31;41.61;98929.45;117907;1205;24618;-60
2021/04/03 09:45:34;;;;;;;3.15;1.30;;;;;;;8.37;41.92;98939.29;117766;1205;23637;-60
2021/04/03 09:48:02;;;;;;;3.90;1.80;;;;;;;8.45;42.26;98936.13;118061;1206;23559;-60
2021/04/03 09:50:30;;;;;;;22.90;16.30;;;;;;;8.50;40.54;98940.78;117910;1205;22818;-60
2021/04/03 09:52:57;;;;;;;19.95;13.45;;;;;;;8.51;40.37;98928.85;117890;1205;23873;-60
2021/04/03 09:55:24;;;;;;;2.75;1.60;;;;;;;8.53;39.34;98934.81;117793;1205;23412;-63
2021/04/03 09:57:52;;;;;;;2.60;1.60;;;;;;;8.52;38.98;98935.89;117734;1205;23551;-63
2021/04/03 10:00:20;;;;;;;17.05;10.10;;;;;;;8.47;39.65;98933.97;117902;1206;23567;-64
2021/04/03 10:02:47;;;;;;;6.80;1.80;;;;;;;8.47;38.81;98922.30;117794;1206;24019;-63
2021/04/03 10:05:15;;;;;;;2.25;1.45;;;;;;;8.51;39.51;98926.14;117623;1206;23013;-64
2021/04/03 10:07:42;;;;;;;4.27;1.90;;;;;;;8.54;39.83;98933.73;117688;1205;22841;-65
2021/04/03 10:10:10;;;;;;;3.65;2.20;;;;;;;8.55;39.25;98935.38;117993;1205;23581;-63
2021/04/03 10:12:38;;;;;;;2.75;1.30;;;;;;;8.54;36.69;98944.59;117948;1206;22901;-63
2021/04/03 10:15:06;;;;;;;3.00;1.30;;;;;;;8.57;36.51;98954.13;117779;1209;22866;-63
2021/04/03 10:17:34;;;;;;;2.65;1.50;;;;;;;8.58;36.89;98951.16;117871;1206;22886;-64
2021/04/03 10:20:06;;;;;;;3.30;1.70;;;;;;;8.58;37.37;98951.16;117811;1205;23723;-63
2021/04/03 10:22:34;;;;;;;4.00;1.70;;;;;;;8.58;37.67;98950.34;117896;1206;23654;-63
2021/04/03 10:25:01;;;;;;;2.20;1.30;;;;;;;8.51;38.67;98945.14;117807;1205;22872;-63
2021/04/03 10:27:29;;;;;;;4.73;2.73;;;;;;;8.50;39.18;98936.17;117862;1208;23041;-63
2021/04/03 10:29:56;;;;;;;4.93;2.80;;;;;;;8.55;39.97;98942.70;117916;1205;22889;-64
2021/04/03 10:32:24;;;;;;;3.60;2.20;;;;;;;8.57;40.14;98937.84;117821;1205;22912;-62
2021/04/03 10:34:51;;;;;;;5.70;4.30;;;;;;;8.62;40.41;98938.70;117908;1208;22909;-63
2021/04/03 10:37:19;;;;;;;3.30;1.90;;;;;;;8.69;39.03;98928.43;117822;1206;22811;-66
2021/04/03 10:39:47;;;;;;;5.65;2.20;;;;;;;8.73;38.51;98931.45;117886;1206;22946;-64
2021/04/03 10:42:16;;;;;;;11.25;5.65;;;;;;;8.71;38.96;98926.27;117755;1206;23086;-63
2021/04/03 10:44:44;;;;;;;7.60;3.40;;;;;;;8.74;40.31;98923.05;117989;1209;22934;-63
2021/04/03 10:47:12;;;;;;;3.05;1.70;;;;;;;8.81;40.83;98922.80;117835;1206;23317;-63
2021/04/03 10:49:40;;;;;;;3.87;1.80;;;;;;;8.91;39.75;98917.46;117941;1205;23914;-63
2021/04/03 10:52:07;;;;;;;9.85;3.30;;;;;;;8.97;39.11;98918.30;117640;1206;22925;-64
2021/04/03 10:54:36;;;;;;;2.85;1.55;;;;;;;9.02;39.41;98923.77;118002;1205;22958;-63
2021/04/03 10:57:05;;;;;;;2.80;1.47;;;;;;;9.05;38.70;98913.20;117819;1206;22847;-63
2021/04/03 10:59:32;;;;;;;7.30;4.70;;;;;;;9.13;39.46;98922.74;117894;1205;22856;-63
2021/04/03 11:02:00;;;;;;;3.50;1.70;;;;;;;9.19;39.15;98908.11;117780;1204;23661;-63
2021/04/03 11:04:28;;;;;;;3.27;1.47;;;;;;;9.29;38.93;98908.16;117864;1204;22966;-62
2021/04/03 11:06:56;;;;;;;3.73;1.20;;;;;;;9.41;38.64;98921.53;115055;1206;25999;-61
2021/04/03 11:09:23;;;;;;;2.00;1.10;;;;;;;9.47;37.22;98915.86;113802;1206;23250;-60
2021/04/03 11:11:51;;;;;;;2.10;1.25;;;;;;;9.46;35.94;98918.84;117775;1206;22944;-61
2021/04/03 11:14:18;;;;;;;2.30;1.30;;;;;;;9.39;36.85;98916.34;117766;1204;22861;-61
2021/04/03 11:17:06;;;;;;;2.93;1.88;;;;;;;9.31;35.66;98916.88;117903;1208;22922;-61
2021/04/03 11:19:35;;;;;;;3.23;1.40;;;;;;;9.22;35.71;98915.75;117873;1208;22824;-61
2021/04/03 11:22:04;;;;;;;2.83;1.60;;;;;;;9.17;37.04;98910.27;117928;1205;22985;-61
2021/04/03 11:24:33;;;;;;;3.20;1.30;;;;;;;9.20;37.51;98912.47;117956;1208;22890;-61
2021/04/03 11:27:01;;;;;;;10.55;1.80;;;;;;;9.25;38.85;98912.48;117819;1206;23574;-61
2021/04/03 11:29:44;;;;;;;4.35;1.60;;;;;;;9.32;36.93;98912.25;117757;1205;22904;-61
2021/04/03 11:32:13;;;;;;;2.00;1.40;;;;;;;9.29;37.95;98902.72;117893;1205;23003;-61
2021/04/03 11:34:41;;;;;;;6.87;2.43;;;;;;;9.38;36.89;98925.59;117814;1207;23502;-61
2021/04/03 11:37:08;;;;;;;5.90;3.70;;;;;;;9.40;36.37;98915.27;117885;1206;23647;-61
2021/04/03 11:39:36;;;;;;;6.20;3.20;;;;;;;9.41;37.96;98921.53;116947;1207;23258;-64
2021/04/03 11:42:05;;;;;;;7.65;1.80;;;;;;;9.46;37.58;98925.09;117953;1204;22929;-65
2021/04/03 11:44:33;;;;;;;5.55;1.85;;;;;;;9.49;36.03;98923.75;117747;1206;23671;-65